Time;durP1;ratioP1;P1;durP2;ratioP2;P2;SDS_P1;SDS_P2;PMS_P1;PMS_P2;Temp;Humidity;BMP_temperature;BMP_pressure;BME280_temperature;BME280_humidity;BME280_pressure;Samples;Min_cycle;Max_cycle;Signal;HPM_P1;HPM_P2
2022/04/29 00:00:34;;;;;;;15.10;11.10;;;;;;;11.38;81.08;96925.84;4996703;28;20084;-65
2022/04/29 00:03:01;;;;;;;15.63;11.63;;;;;;;11.42;80.32;96924.81;4996293;28;20374;-67
2022/04/29 00:05:27;;;;;;;13.52;11.18;;;;;;;11.33;80.17;96912.91;4996416;28;20472;-63
2022/04/29 00:07:52;;;;;;;14.50;11.98;;;;;;;11.33;80.19;96904.16;4996365;28;20133;-67
2022/04/29 00:10:19;;;;;;;14.48;11.40;;;;;;;11.20;79.99;96906.38;4996315;28;20449;-64
2022/04/29 00:12:46;;;;;;;14.38;11.90;;;;;;;11.17;80.14;96896.84;4996126;28;20074;-63
2022/04/29 00:15:13;;;;;;;17.02;11.63;;;;;;;11.14;80.24;96896.97;4996208;28;20050;-65
2022/04/29 00:17:40;;;;;;;12.43;11.20;;;;;;;11.14;80.47;96898.72;4996219;28;20106;-66
2022/04/29 00:20:07;;;;;;;12.13;10.40;;;;;;;11.14;80.27;96886.50;4996117;28;20469;-65
2022/04/29 00:22:34;;;;;;;12.77;11.43;;;;;;;11.11;79.37;96876.97;4995853;28;20477;-66
2022/04/29 00:24:59;;;;;;;13.40;10.63;;;;;;;11.07;79.50;96890.22;4995936;28;20128;-66
2022/04/29 00:27:25;;;;;;;13.68;12.27;;;;;;;11.06;79.67;96893.75;4995961;28;20480;-63
2022/04/29 00:29:51;;;;;;;15.52;11.95;;;;;;;11.07;79.77;96888.47;4995973;28;20023;-63
2022/04/29 00:32:17;;;;;;;18.52;10.98;;;;;;;11.08;79.38;96879.69;4995835;28;20022;-66
2022/04/29 00:34:43;;;;;;;13.02;11.73;;;;;;;11.01;79.14;96891.28;4995698;28;20114;-65
2022/04/29 00:37:10;;;;;;;14.20;12.75;;;;;;;10.97;79.56;96905.38;4995788;28;20109;-67
2022/04/29 00:39:36;;;;;;;14.48;13.00;;;;;;;10.96;80.03;96922.84;4995821;28;20109;-63
2022/04/29 00:42:10;;;;;;;16.05;11.90;;;;;;;11.02;79.97;96921.81;4995414;28;20623;-63
2022/04/29 00:44:38;;;;;;;17.58;11.02;;;;;;;10.96;79.73;96916.78;4995789;28;20362;-65
2022/04/29 00:47:07;;;;;;;11.00;9.85;;;;;;;10.94;79.42;96908.97;4978084;28;20085;-67
2022/04/29 00:49:32;;;;;;;18.20;12.63;;;;;;;10.85;79.58;96907.53;4995551;28;20018;-64
2022/04/29 00:51:58;;;;;;;15.07;13.15;;;;;;;10.79;80.05;96907.72;4995002;28;20033;-66
2022/04/29 00:54:32;;;;;;;17.88;14.77;;;;;;;10.65;81.02;96908.16;4995527;28;20022;-66
2022/04/29 00:56:59;;;;;;;16.38;13.75;;;;;;;10.68;81.56;96913.28;4995519;28;20045;-67
2022/04/29 00:59:30;;;;;;;15.60;13.85;;;;;;;10.63;81.78;96903.88;4995386;28;20482;-63
2022/04/29 01:01:57;;;;;;;14.48;12.90;;;;;;;10.55;81.93;96906.75;4995368;28;20110;-64
2022/04/29 01:04:32;;;;;;;21.10;13.32;;;;;;;10.45;82.42;96907.03;4995284;28;20022;-64
2022/04/29 01:06:57;;;;;;;14.60;13.00;;;;;;;10.47;82.43;96902.63;4995338;28;20057;-65
2022/04/29 01:09:23;;;;;;;14.90;12.65;;;;;;;10.48;82.30;96911.34;4995082;28;20489;-63
2022/04/29 01:11:50;;;;;;;16.92;13.32;;;;;;;10.51;82.67;96897.28;4995042;28;20034;-65
2022/04/29 01:14:15;;;;;;;27.83;17.25;;;;;;;10.46;82.75;96885.22;4995109;28;20057;-67
2022/04/29 01:16:41;;;;;;;18.70;13.15;;;;;;;10.42;82.54;96872.25;4995075;28;20385;-65
2022/04/29 01:19:07;;;;;;;15.90;13.98;;;;;;;10.31;82.90;96872.59;4995027;28;20350;-64
2022/04/29 01:21:33;;;;;;;18.88;14.93;;;;;;;10.23;83.59;96873.69;4994988;28;20037;-63
2022/04/29 01:23:58;;;;;;;21.42;15.05;;;;;;;10.24;84.26;96882.41;4994892;28;20473;-64
2022/04/29 01:26:24;;;;;;;19.30;15.65;;;;;;;10.32;84.42;96887.38;4994924;28;20029;-66
2022/04/29 01:28:51;;;;;;;20.67;14.88;;;;;;;10.36;84.46;96887.22;4994925;28;20023;-66
2022/04/29 01:31:22;;;;;;;17.85;15.77;;;;;;;10.49;84.06;96889.50;4994867;28;20081;-67
2022/04/29 01:33:50;;;;;;;18.30;14.02;;;;;;;10.51;84.04;96876.38;4994783;28;20027;-65
2022/04/29 01:36:16;;;;;;;15.90;14.18;;;;;;;10.53;83.57;96867.56;4994745;28;20034;-67
2022/04/29 01:38:41;;;;;;;15.93;14.27;;;;;;;10.62;83.41;96861.16;4994714;28;20495;-66
2022/04/29 01:41:07;;;;;;;18.48;13.57;;;;;;;10.65;83.66;96845.38;4994410;28;20834;-64
2022/04/29 01:43:34;;;;;;;17.45;14.73;;;;;;;10.66;83.29;96848.84;4994451;28;20033;-64
2022/04/29 01:46:01;;;;;;;15.18;13.10;;;;;;;10.68;83.30;96841.78;4994505;28;20023;-66
2022/04/29 01:48:27;;;;;;;16.35;14.10;;;;;;;10.57;82.95;96831.72;4994466;28;20026;-67
2022/04/29 01:50:52;;;;;;;15.93;14.15;;;;;;;10.61;82.82;96831.56;4994506;28;20038;-63
2022/04/29 01:53:18;;;;;;;19.17;13.65;;;;;;;10.69;82.77;96844.34;4994519;28;20101;-66
2022/04/29 01:55:44;;;;;;;17.40;15.20;;;;;;;10.80;83.17;96861.44;4994304;28;20116;-66
2022/04/29 01:58:09;;;;;;;19.00;14.73;;;;;;;10.86;83.58;96867.34;4994369;28;20077;-65
2022/04/29 02:00:35;;;;;;;17.20;14.90;;;;;;;10.85;83.13;96860.41;4994387;28;20077;-66
2022/04/29 02:03:00;;;;;;;19.02;15.30;;;;;;;10.92;83.45;96863.66;4993433;28;20035;-66
2022/04/29 02:05:26;;;;;;;19.63;15.80;;;;;;;10.95;82.89;96860.94;4994263;28;20030;-63
2022/04/29 02:07:52;;;;;;;22.77;15.75;;;;;;;11.01;82.75;96854.63;4994093;28;20027;-65
2022/04/29 02:10:17;;;;;;;15.25;13.65;;;;;;;10.98;81.97;96855.59;4994195;28;20088;-67
2022/04/29 02:12:43;;;;;;;17.67;13.98;;;;;;;10.87;82.63;96861.19;4993944;28;20065;-67
2022/04/29 02:15:09;;;;;;;16.40;13.20;;;;;;;10.92;82.82;96865.41;4994022;28;20396;-67
2022/04/29 02:17:35;;;;;;;21.15;14.85;;;;;;;10.89;82.74;96863.75;4993972;28;20038;-66
2022/04/29 02:20:01;;;;;;;19.65;14.70;;;;;;;10.94;82.86;96874.94;4993963;28;20393;-63
2022/04/29 02:22:26;;;;;;;18.50;13.75;;;;;;;10.97;82.75;96882.69;4993740;28;20433;-67
2022/04/29 02:24:52;;;;;;;16.45;13.90;;;;;;;11.06;82.79;96876.28;4993944;28;20492;-67
2022/04/29 02:27:18;;;;;;;17.98;14.63;;;;;;;11.14;82.50;96883.00;4994066;28;20022;-64
2022/04/29 02:29:43;;;;;;;17.67;15.07;;;;;;;11.07;81.96;96878.00;4993719;28;20033;-65
2022/04/29 02:32:09;;;;;;;15.98;14.27;;;;;;;11.08;81.65;96878.84;4993835;28;20504;-66
2022/04/29 02:34:36;;;;;;;16.52;14.75;;;;;;;11.10;81.23;96875.25;4993775;28;20064;-65
2022/04/29 02:37:02;;;;;;;19.13;13.60;;;;;;;11.09;81.01;96876.19;4993757;28;20022;-66
2022/04/29 02:39:28;;;;;;;15.27;13.68;;;;;;;11.03;81.19;96886.88;4993735;28;20027;-64
2022/04/29 02:41:54;;;;;;;15.93;14.32;;;;;;;11.01;81.07;96886.03;4993423;28;20046;-64
2022/04/29 02:44:21;;;;;;;14.63;12.13;;;;;;;11.00;80.77;96884.34;4993774;28;20073;-67
2022/04/29 02:49:31;;;;;;;16.10;13.38;;;;;;;10.76;80.44;96886.03;4993831;28;20496;-64
2022/04/29 02:51:56;;;;;;;24.77;14.90;;;;;;;10.72;80.39;96891.34;4993576;28;20022;-64
2022/04/29 02:54:22;;;;;;;21.35;15.30;;;;;;;10.66;80.81;96895.94;4993584;28;20023;-66
2022/04/29 02:56:51;;;;;;;14.45;12.13;;;;;;;10.69;80.68;96901.09;4993544;28;20022;-67
2022/04/29 02:59:17;;;;;;;17.35;12.73;;;;;;;10.63;80.63;96896.91;4993472;28;20441;-68
2022/04/29 03:01:44;;;;;;;15.48;13.35;;;;;;;10.52;79.98;96892.00;4993555;28;20077;-65
2022/04/29 03:04:09;;;;;;;20.42;13.30;;;;;;;10.48;80.16;96896.47;4993395;28;20492;-65
2022/04/29 03:06:35;;;;;;;16.17;13.65;;;;;;;10.37;80.21;96890.72;4993383;28;20027;-64
2022/04/29 03:09:00;;;;;;;17.77;12.43;;;;;;;10.31;80.12;96890.91;4993382;28;20037;-67
2022/04/29 03:11:26;;;;;;;16.90;12.38;;;;;;;10.17;80.09;96897.41;4993532;28;20057;-67
2022/04/29 03:13:51;;;;;;;19.92;12.20;;;;;;;10.09;79.90;96900.25;4993657;28;20472;-66
2022/04/29 03:16:17;;;;;;;17.88;12.40;;;;;;;9.98;80.32;96891.88;4997354;28;20033;-64
2022/04/29 03:18:43;;;;;;;16.88;14.32;;;;;;;9.89;80.58;96894.75;4997302;28;20026;-64
2022/04/29 03:21:10;;;;;;;16.65;13.43;;;;;;;9.80;81.01;96896.75;4997197;28;20072;-65
2022/04/29 03:23:36;;;;;;;14.90;12.95;;;;;;;9.79;80.96;96897.69;4979651;28;20408;-67
2022/04/29 03:26:02;;;;;;;15.48;12.95;;;;;;;9.79;81.27;96897.69;4997119;28;20030;-64
2022/04/29 03:28:28;;;;;;;16.23;13.30;;;;;;;9.72;81.29;96899.59;4997184;28;20022;-65
2022/04/29 03:30:53;;;;;;;19.35;13.93;;;;;;;9.78;81.25;96895.09;4997124;28;20046;-67
2022/04/29 03:33:19;;;;;;;14.88;12.82;;;;;;;9.81;80.78;96900.25;4996914;28;20105;-64
2022/04/29 03:35:47;;;;;;;15.68;12.55;;;;;;;9.82;80.79;96897.56;4996997;28;20037;-65
2022/04/29 03:38:12;;;;;;;15.20;12.88;;;;;;;9.79;80.58;96907.25;4996947;28;20058;-64
2022/04/29 03:40:38;;;;;;;14.75;12.48;;;;;;;9.83;79.96;96901.91;4996738;28;20516;-67
2022/04/29 03:43:05;;;;;;;13.18;11.80;;;;;;;9.85;79.96;96910.53;4996824;28;20037;-63
2022/04/29 03:45:31;;;;;;;17.77;12.23;;;;;;;9.88;79.47;96908.75;4996904;28;20109;-67
2022/04/29 03:47:57;;;;;;;13.07;11.75;;;;;;;9.91;79.44;96911.28;4996704;28;20402;-64
2022/04/29 03:50:25;;;;;;;16.25;10.40;;;;;;;9.95;79.31;96913.75;4996751;28;20064;-64
2022/04/29 03:52:51;;;;;;;12.40;11.10;;;;;;;9.92;79.10;96915.59;4996765;28;20139;-67
2022/04/29 03:55:22;;;;;;;23.00;15.85;;;;;;;9.94;79.02;96908.56;4996507;28;20109;-65
2022/04/29 03:57:49;;;;;;;24.45;15.10;;;;;;;9.98;78.78;96910.19;4996460;28;20040;-64
2022/04/29 04:00:15;;;;;;;16.40;14.80;;;;;;;10.00;78.89;96916.22;4996404;28;20026;-66
2022/04/29 04:02:41;;;;;;;14.85;11.90;;;;;;;10.03;79.27;96920.50;4996374;28;20393;-66
2022/04/29 04:05:08;;;;;;;16.20;13.60;;;;;;;10.07;78.57;96920.38;4996494;28;20030;-67
2022/04/29 04:07:35;;;;;;;17.38;14.05;;;;;;;10.06;78.81;96923.88;4996348;28;20026;-65
2022/04/29 04:10:01;;;;;;;15.65;13.52;;;;;;;10.09;79.13;96925.56;4996484;28;20466;-66
2022/04/29 04:12:37;;;;;;;14.90;12.35;;;;;;;10.14;79.24;96917.56;4996305;28;20026;-65
2022/04/29 04:15:03;;;;;;;15.70;14.10;;;;;;;10.27;79.94;96925.91;4996312;28;20023;-66
2022/04/29 04:17:29;;;;;;;15.98;12.77;;;;;;;10.60;79.80;96926.63;4996191;28;20033;-65
2022/04/29 04:19:54;;;;;;;12.80;11.50;;;;;;;11.03;79.01;96930.50;4996107;28;20450;-64
2022/04/29 04:22:20;;;;;;;16.05;11.75;;;;;;;11.40;77.24;96931.84;4995997;28;20026;-63
2022/04/29 04:24:45;;;;;;;13.82;10.80;;;;;;;11.66;75.60;96927.47;4996097;28;20381;-65
2022/04/29 04:27:11;;;;;;;17.45;13.82;;;;;;;11.83;75.01;96936.47;4995379;28;20027;-65
2022/04/29 04:29:36;;;;;;;19.45;11.55;;;;;;;11.97;74.76;96934.19;4978624;28;20465;-66
2022/04/29 04:32:02;;;;;;;15.98;12.45;;;;;;;12.03;74.12;96940.09;4995931;28;20023;-67
2022/04/29 04:37:12;;;;;;;12.15;10.52;;;;;;;12.35;73.38;96941.56;4995938;28;20085;-62
2022/04/29 04:39:37;;;;;;;15.65;13.27;;;;;;;12.54;72.88;96938.19;4995913;28;20038;-64
2022/04/29 04:42:03;;;;;;;18.05;11.93;;;;;;;12.83;72.52;96937.94;4995489;28;20051;-65
2022/04/29 04:44:29;;;;;;;12.55;10.32;;;;;;;13.33;71.93;96944.63;4995522;28;20033;-65
2022/04/29 04:46:55;;;;;;;10.32;9.27;;;;;;;13.84;70.91;96938.94;4995754;28;20421;-65
2022/04/29 04:49:20;;;;;;;9.77;8.77;;;;;;;14.35;69.62;96940.16;4995550;28;20429;-65
2022/04/29 04:51:46;;;;;;;9.65;8.73;;;;;;;14.83;68.18;96944.97;4995511;28;20381;-66
2022/04/29 04:54:11;;;;;;;12.38;9.57;;;;;;;15.08;64.78;96941.97;4995431;28;20026;-64
2022/04/29 04:56:38;;;;;;;10.15;9.13;;;;;;;15.18;65.53;96942.38;4995451;28;20026;-64
2022/04/29 04:59:04;;;;;;;10.40;8.13;;;;;;;15.47;65.46;96939.19;4995496;28;20034;-63
2022/04/29 05:01:30;;;;;;;9.35;8.40;;;;;;;15.89;65.20;96944.91;4995475;28;20026;-62
2022/04/29 05:03:56;;;;;;;13.18;8.68;;;;;;;16.18;62.57;96945.19;4995363;28;20034;-63
2022/04/29 05:06:21;;;;;;;9.50;8.35;;;;;;;16.37;60.18;96937.09;4995434;28;20102;-63
2022/04/29 05:08:47;;;;;;;14.50;8.65;;;;;;;16.47;60.40;96941.88;4995310;28;20026;-65
2022/04/29 05:11:12;;;;;;;11.85;9.02;;;;;;;16.57;59.24;96942.19;4995174;28;20435;-65
2022/04/29 05:13:38;;;;;;;12.77;8.32;;;;;;;16.65;58.10;96946.09;4995190;28;20023;-64
2022/04/29 05:16:04;;;;;;;11.00;9.10;;;;;;;16.61;59.21;96947.22;4995137;28;20018;-64
2022/04/29 05:18:30;;;;;;;12.50;9.23;;;;;;;16.68;59.72;96945.09;4995043;28;20041;-62
2022/04/29 05:20:56;;;;;;;9.82;8.82;;;;;;;16.74;60.01;96951.81;4995045;28;20038;-62
2022/04/29 05:23:21;;;;;;;11.57;9.05;;;;;;;17.00;58.27;96952.97;4994977;28;20033;-61
2022/04/29 05:25:47;;;;;;;10.93;8.32;;;;;;;17.20;57.77;96951.00;4994837;28;20093;-64
2022/04/29 05:28:13;;;;;;;9.82;8.52;;;;;;;17.16;56.98;96946.84;4994860;28;20034;-63
2022/04/29 05:30:39;;;;;;;12.38;8.93;;;;;;;17.38;57.46;96950.84;4995008;28;20473;-63
2022/04/29 05:33:06;;;;;;;11.75;8.40;;;;;;;17.05;56.23;96950.06;4994696;28;20088;-63
2022/04/29 05:35:34;;;;;;;10.25;8.90;;;;;;;16.72;58.51;96937.84;4994680;28;20469;-65
2022/04/29 05:38:01;;;;;;;16.90;8.93;;;;;;;16.39;60.15;96942.28;4994804;28;20129;-64
2022/04/29 05:43:10;;;;;;;10.32;9.32;;;;;;;16.08;61.33;96947.47;4994639;28;20116;-63
2022/04/29 05:45:36;;;;;;;9.70;8.70;;;;;;;15.66;62.23;96944.34;4994632;28;20026;-65
2022/04/29 05:48:02;;;;;;;11.88;9.02;;;;;;;15.52;62.08;96942.44;4994528;28;20022;-65
2022/04/29 05:50:29;;;;;;;10.90;8.85;;;;;;;15.44;62.83;96948.09;4994527;28;20522;-64
2022/04/29 05:52:54;;;;;;;10.93;9.27;;;;;;;15.34;61.89;96952.13;4994402;28;20477;-63
2022/04/29 05:55:20;;;;;;;11.05;9.25;;;;;;;15.40;63.66;96957.94;4994424;28;20089;-63
2022/04/29 05:57:46;;;;;;;9.38;8.15;;;;;;;15.82;61.08;96952.31;4994347;28;20022;-63
2022/04/29 06:00:12;;;;;;;10.38;8.63;;;;;;;16.11;61.33;96951.72;4994311;28;20477;-63
2022/04/29 06:02:41;;;;;;;9.02;8.02;;;;;;;16.45;59.25;96949.00;4994058;28;20073;-63
2022/04/29 06:05:07;;;;;;;9.40;8.50;;;;;;;16.91;58.27;96959.63;4994256;28;20025;-64
2022/04/29 06:07:33;;;;;;;8.25;7.45;;;;;;;17.23;55.87;96961.41;4994159;28;20030;-63
2022/04/29 06:09:58;;;;;;;8.90;8.00;;;;;;;17.29;58.70;96961.03;4994146;28;20023;-64
2022/04/29 06:12:24;;;;;;;9.57;7.25;;;;;;;17.80;54.20;96957.16;4994117;28;20025;-63
2022/04/29 06:14:49;;;;;;;9.43;7.35;;;;;;;18.09;51.45;96960.75;4994153;28;20101;-62
2022/04/29 06:17:15;;;;;;;8.32;7.13;;;;;;;18.24;52.24;96961.63;4994136;28;20480;-64
2022/04/29 06:19:41;;;;;;;8.75;7.85;;;;;;;18.26;51.01;96957.06;4994089;28;20038;-63
2022/04/29 06:22:07;;;;;;;11.02;7.53;;;;;;;17.98;51.11;96959.63;4994033;28;20022;-64
2022/04/29 06:24:33;;;;;;;6.75;6.10;;;;;;;18.12;51.19;96964.06;4993882;28;20358;-62
2022/04/29 06:26:59;;;;;;;8.45;6.10;;;;;;;18.13;48.41;96962.28;4993926;28;20019;-63
2022/04/29 06:29:25;;;;;;;7.65;6.85;;;;;;;17.97;49.24;96965.00;4993951;28;20100;-62
2022/04/29 06:31:50;;;;;;;10.98;6.95;;;;;;;18.05;51.07;96960.06;4993771;28;20053;-63
2022/04/29 06:34:16;;;;;;;9.68;7.35;;;;;;;18.29;49.15;96960.38;4993845;28;20050;-64
2022/04/29 06:36:42;;;;;;;9.98;7.32;;;;;;;18.37;48.98;96969.63;4993758;28;20032;-62
2022/04/29 06:39:08;;;;;;;9.18;6.53;;;;;;;18.00;48.10;96964.81;4993835;28;20031;-62
2022/04/29 06:41:35;;;;;;;8.05;6.88;;;;;;;18.23;49.14;96970.50;4993558;28;20100;-64
2022/04/29 06:44:00;;;;;;;7.55;6.80;;;;;;;18.51;48.32;96960.84;4993630;28;20066;-64
2022/04/29 06:46:26;;;;;;;10.48;7.22;;;;;;;18.79;51.23;96959.06;4993574;28;20496;-64
2022/04/29 06:48:56;;;;;;;9.35;7.13;;;;;;;19.18;47.96;96967.16;4994976;28;20069;-63
2022/04/29 06:51:23;;;;;;;10.45;6.78;;;;;;;19.46;45.75;96965.31;4983676;28;20085;-63
2022/04/29 06:53:49;;;;;;;10.82;7.80;;;;;;;19.38;46.95;96959.69;5000272;28;20457;-63
2022/04/29 06:56:15;;;;;;;9.70;8.13;;;;;;;19.70;51.88;96968.09;5000054;28;20018;-64
2022/04/29 06:58:41;;;;;;;8.25;6.75;;;;;;;19.86;46.66;96967.03;5000232;28;20026;-64
2022/04/29 07:01:07;;;;;;;8.48;7.68;;;;;;;20.18;46.98;96965.78;5000092;28;20027;-64
2022/04/29 07:03:33;;;;;;;7.65;6.95;;;;;;;20.22;43.95;96969.91;4999800;28;20049;-62
2022/04/29 07:06:01;;;;;;;9.18;7.15;;;;;;;19.67;45.12;96963.00;4999898;28;20097;-63
2022/04/29 07:08:31;;;;;;;8.48;7.57;;;;;;;19.52;47.07;96964.91;4999930;28;20027;-63
2022/04/29 07:10:57;;;;;;;9.35;7.55;;;;;;;19.56;48.98;96963.72;5000163;28;20404;-65
2022/04/29 07:13:22;;;;;;;9.63;6.97;;;;;;;19.68;47.73;96967.34;4999934;28;20065;-64
2022/04/29 07:15:48;;;;;;;7.10;6.40;;;;;;;19.85;44.95;96967.13;4999890;28;20054;-65
2022/04/29 07:18:15;;;;;;;7.85;6.80;;;;;;;19.64;46.82;96973.84;4999937;28;20018;-63
2022/04/29 07:20:41;;;;;;;6.85;6.15;;;;;;;19.53;44.71;96974.53;4982754;28;20053;-65
2022/04/29 07:23:07;;;;;;;5.90;5.22;;;;;;;20.06;46.21;96972.78;4999809;28;20469;-64
2022/04/29 07:25:33;;;;;;;6.85;6.25;;;;;;;20.39;44.44;96978.50;4999902;28;20027;-61
2022/04/29 07:28:00;;;;;;;8.57;5.60;;;;;;;20.50;44.68;96978.56;4999785;28;20039;-64
2022/04/29 07:30:28;;;;;;;8.43;6.55;;;;;;;20.87;45.61;96972.41;4999704;28;20388;-64
2022/04/29 07:32:54;;;;;;;6.78;6.07;;;;;;;21.04;46.59;96973.00;4999735;28;20377;-62
2022/04/29 07:43:39;;;;;;;7.32;6.43;;;;;;;20.44;48.36;96979.84;4999733;28;20522;-63
2022/04/29 07:46:04;;;;;;;11.48;6.65;;;;;;;20.49;47.72;96970.69;4999715;28;20033;-65
2022/04/29 07:48:31;;;;;;;7.47;6.70;;;;;;;20.45;47.28;96972.75;4999727;28;20023;-63
2022/04/29 07:50:57;;;;;;;7.93;7.13;;;;;;;20.52;49.13;96973.13;4999650;28;20420;-63
2022/04/29 07:53:23;;;;;;;7.07;6.30;;;;;;;20.28;45.99;96974.78;4982168;28;20022;-64
2022/04/29 07:55:52;;;;;;;9.68;5.97;;;;;;;19.97;44.35;96976.91;4999497;28;20081;-65
2022/04/29 07:58:18;;;;;;;7.00;6.30;;;;;;;19.90;45.10;96978.31;4999551;28;20109;-65
2022/04/29 08:00:43;;;;;;;7.25;6.50;;;;;;;19.77;45.65;96983.59;4997235;28;20069;-64
2022/04/29 08:03:09;;;;;;;7.97;5.78;;;;;;;19.16;47.50;96980.53;4996337;28;20025;-63
2022/04/29 08:05:35;;;;;;;6.47;5.88;;;;;;;18.96;47.14;96975.66;4996319;28;20457;-62
2022/04/29 08:08:01;;;;;;;7.72;6.53;;;;;;;18.93;45.96;96977.53;4996339;28;20397;-63
2022/04/29 08:10:30;;;;;;;9.07;7.25;;;;;;;19.09;48.22;96976.59;4996391;28;20018;-65
2022/04/29 08:12:57;;;;;;;8.30;6.68;;;;;;;19.01;46.93;96978.84;4996475;28;20376;-65
2022/04/29 08:15:26;;;;;;;7.07;6.38;;;;;;;19.23;45.94;96964.22;4996333;28;20031;-64
2022/04/29 08:17:52;;;;;;;8.02;7.10;;;;;;;19.79;47.75;96969.28;4996217;28;20031;-65
2022/04/29 08:20:18;;;;;;;8.88;6.75;;;;;;;20.22;45.50;96975.22;4996373;28;20097;-62
2022/04/29 08:22:43;;;;;;;9.48;6.90;;;;;;;20.16;43.89;96973.84;4978746;28;20500;-62
2022/04/29 08:25:10;;;;;;;7.40;6.70;;;;;;;19.57;45.47;96973.38;4996031;28;20041;-63
2022/04/29 08:27:35;;;;;;;7.95;6.65;;;;;;;19.23;45.60;96970.34;4995977;28;20034;-65
2022/04/29 08:30:03;;;;;;;7.97;6.55;;;;;;;19.13;45.49;96963.97;4995922;28;20036;-62
2022/04/29 08:32:36;;;;;;;7.40;6.68;;;;;;;19.36;45.82;96966.88;4996050;28;20023;-64
2022/04/29 08:35:01;;;;;;;9.75;6.30;;;;;;;19.08;46.46;96958.13;4996105;28;20062;-62
2022/04/29 08:37:27;;;;;;;8.45;6.90;;;;;;;19.11;46.31;96956.09;4995860;28;20477;-62
2022/04/29 08:39:53;;;;;;;7.43;6.32;;;;;;;19.32;47.73;96963.56;4995681;28;20039;-64
2022/04/29 08:42:19;;;;;;;7.07;6.35;;;;;;;19.61;45.97;96965.22;4995447;28;20046;-62
2022/04/29 08:44:45;;;;;;;9.82;7.00;;;;;;;19.98;45.66;96959.19;4995773;28;20065;-63
2022/04/29 08:47:12;;;;;;;8.05;6.18;;;;;;;20.36;42.88;96954.78;4995819;28;20109;-66
2022/04/29 08:49:38;;;;;;;7.13;6.43;;;;;;;20.17;44.59;96954.28;4995729;28;20026;-62
2022/04/29 08:52:05;;;;;;;7.03;6.32;;;;;;;19.76;43.62;96958.00;4978214;28;20468;-63
2022/04/29 09:00:01;;;;;;;7.30;6.60;;;;;;;19.48;45.38;96951.94;4996027;28;20504;-63
2022/04/29 09:02:27;;;;;;;7.20;6.50;;;;;;;19.59;46.56;96949.41;4995318;28;20015;-65
2022/04/29 09:04:53;;;;;;;6.82;6.13;;;;;;;20.06;45.57;96949.75;4995342;28;20070;-62
2022/04/29 09:07:19;;;;;;;5.53;5.03;;;;;;;20.16;42.12;96939.31;4995350;28;20042;-63
2022/04/29 09:10:02;;;;;;;6.82;4.47;;;;;;;20.43;41.34;96948.94;4995301;28;20022;-64
2022/04/29 09:12:29;;;;;;;6.32;5.72;;;;;;;20.33;43.50;96947.91;4994982;28;20026;-62
2022/04/29 09:15:12;;;;;;;7.55;6.00;;;;;;;20.78;44.33;96939.38;4995283;28;20048;-63
2022/04/29 09:17:41;;;;;;;9.70;4.93;;;;;;;20.56;42.67;96946.22;4995041;28;20033;-64
2022/04/29 09:20:18;;;;;;;6.63;5.43;;;;;;;20.58;41.12;96941.66;4995170;28;20461;-64
2022/04/29 09:22:51;;;;;;;7.40;5.00;;;;;;;20.30;41.22;96948.13;4994964;28;20113;-65
2022/04/29 09:25:17;;;;;;;5.13;4.28;;;;;;;20.32;40.15;96944.38;4994898;28;20117;-65
2022/04/29 09:27:59;;;;;;;6.80;4.38;;;;;;;20.32;43.19;96938.25;4994927;28;20504;-63
2022/04/29 09:30:40;;;;;;;6.07;5.28;;;;;;;20.24;43.21;96932.63;4994810;28;20092;-64
2022/04/29 09:33:26;;;;;;;5.93;5.38;;;;;;;20.12;44.23;96945.81;4994671;28;20030;-64
2022/04/29 09:35:53;;;;;;;5.10;4.68;;;;;;;20.00;40.88;96930.72;4994751;28;20037;-63
2022/04/29 09:41:05;;;;;;;5.38;4.88;;;;;;;20.10;43.17;96934.44;4994619;28;20162;-65
2022/04/29 09:43:32;;;;;;;7.60;5.45;;;;;;;20.31;43.75;96929.41;4994618;28;20026;-64
2022/04/29 09:46:12;;;;;;;6.32;5.60;;;;;;;20.33;43.34;96927.50;4994513;28;20031;-64
2022/04/29 09:49:13;;;;;;;6.00;5.30;;;;;;;20.35;43.72;96923.88;4994459;28;20030;-65
2022/04/29 09:51:42;;;;;;;6.00;5.25;;;;;;;20.20;41.84;96924.88;4915614;29;20047;-64
2022/04/29 09:54:12;;;;;;;6.15;5.55;;;;;;;20.41;43.29;96923.44;4979884;28;20084;-63
2022/04/29 09:56:38;;;;;;;6.90;5.03;;;;;;;20.65;41.23;96920.81;4994386;28;20023;-61
2022/04/29 09:59:06;;;;;;;7.55;5.10;;;;;;;20.82;42.56;96908.94;4994551;28;20109;-65
2022/04/29 10:01:31;;;;;;;5.30;4.53;;;;;;;20.98;41.55;96913.13;4994333;28;20105;-62
2022/04/29 10:04:00;;;;;;;8.70;5.43;;;;;;;20.92;41.99;96919.75;4994310;28;20116;-62
2022/04/29 10:06:28;;;;;;;6.25;5.65;;;;;;;20.67;40.64;96912.72;4994221;28;20027;-64
2022/04/29 10:08:56;;;;;;;8.10;5.68;;;;;;;20.78;41.83;96906.63;4994231;28;20030;-65
2022/04/29 10:11:23;;;;;;;6.85;5.30;;;;;;;20.79;41.43;96910.97;4994143;28;20023;-64
2022/04/29 10:13:50;;;;;;;6.60;5.20;;;;;;;20.58;41.25;96908.94;4994248;28;20093;-63
2022/04/29 10:16:18;;;;;;;7.80;5.55;;;;;;;20.33;41.18;96908.06;4994250;28;20030;-61
2022/04/29 10:21:38;;;;;;;5.47;4.97;;;;;;;19.53;42.66;96902.91;4994389;28;20061;-61
2022/04/29 10:24:05;;;;;;;6.88;5.38;;;;;;;19.36;44.09;96903.25;4993223;28;20023;-61
2022/04/29 10:26:31;;;;;;;8.23;4.85;;;;;;;19.37;44.45;96908.44;4993978;28;20384;-63
2022/04/29 10:28:57;;;;;;;7.32;5.32;;;;;;;19.39;44.67;96914.47;4994046;28;20445;-61
2022/04/29 10:31:23;;;;;;;6.45;5.50;;;;;;;19.25;43.45;96915.41;4993815;28;20022;-62
2022/04/29 10:33:50;;;;;;;6.30;4.97;;;;;;;19.10;43.84;96911.13;4993752;28;20025;-62
2022/04/29 10:36:22;;;;;;;5.05;4.45;;;;;;;18.89;43.96;96914.22;4993710;28;20019;-64
2022/04/29 10:38:47;;;;;;;5.28;4.78;;;;;;;18.85;45.81;96913.59;4993927;28;20054;-64
2022/04/29 10:41:17;;;;;;;7.28;5.57;;;;;;;18.73;45.09;96909.09;4993681;28;20074;-62
2022/04/29 10:43:55;;;;;;;6.32;5.10;;;;;;;18.87;45.44;96908.22;4993618;28;20388;-64
2022/04/29 10:46:30;;;;;;;5.82;4.75;;;;;;;18.80;45.06;96905.94;4993937;28;20030;-65
2022/04/29 10:48:57;;;;;;;5.95;5.35;;;;;;;18.75;44.79;96909.88;4993825;28;20026;-63
2022/04/29 10:51:25;;;;;;;5.55;5.05;;;;;;;18.74;45.84;96909.00;4993735;28;20535;-64
2022/04/29 10:53:55;;;;;;;5.30;4.80;;;;;;;18.68;45.12;96904.97;4993784;28;20026;-63
2022/04/29 10:56:26;;;;;;;9.27;4.40;;;;;;;18.38;45.32;96902.47;4993824;28;20077;-64
2022/04/29 10:58:53;;;;;;;7.95;5.80;;;;;;;18.37;48.13;96898.16;4993542;28;20045;-63
2022/04/29 11:01:27;;;;;;;7.78;5.20;;;;;;;18.37;48.27;96899.00;4976210;28;20018;-65
2022/04/29 11:03:54;;;;;;;6.05;5.43;;;;;;;18.28;48.06;96902.22;4993512;28;20033;-64
2022/04/29 11:06:19;;;;;;;6.95;5.60;;;;;;;18.30;47.67;96905.63;4993594;28;20456;-65
2022/04/29 11:08:46;;;;;;;9.20;6.25;;;;;;;18.26;48.49;96909.41;4993512;28;20053;-62
2022/04/29 11:11:12;;;;;;;5.80;5.13;;;;;;;18.14;47.61;96903.09;4993487;28;20054;-64
2022/04/29 11:13:44;;;;;;;6.95;5.85;;;;;;;18.01;48.13;96909.16;4993534;28;20030;-64
2022/04/29 11:16:15;;;;;;;6.47;5.88;;;;;;;17.84;49.28;96901.38;4993661;28;20022;-64
2022/04/29 11:18:43;;;;;;;7.65;5.35;;;;;;;17.71;48.98;96904.81;4993499;28;20026;-62
2022/04/29 11:26:48;;;;;;;6.82;6.22;;;;;;;17.55;50.92;96900.44;4993826;28;20068;-63
2022/04/29 11:29:16;;;;;;;7.07;6.10;;;;;;;17.50;51.39;96899.88;4993383;28;20041;-65
2022/04/29 11:31:41;;;;;;;7.35;6.15;;;;;;;17.38;50.62;96892.69;4993346;28;20402;-64
2022/04/29 11:34:09;;;;;;;6.35;5.75;;;;;;;17.40;51.08;96899.56;4993186;28;20026;-62
2022/04/29 11:36:36;;;;;;;11.95;6.53;;;;;;;17.42;50.82;96886.25;4996264;28;20129;-65
2022/04/29 11:39:07;;;;;;;8.38;6.38;;;;;;;17.35;50.45;96900.78;4996985;28;20480;-63
2022/04/29 11:41:32;;;;;;;9.38;6.70;;;;;;;17.33;51.86;96882.38;4996774;28;20059;-65
2022/04/29 11:44:02;;;;;;;9.38;6.47;;;;;;;17.25;51.58;96882.00;4996798;28;20080;-64
2022/04/29 11:46:28;;;;;;;7.23;6.53;;;;;;;17.30;50.76;96874.63;4979865;28;20058;-64
2022/04/29 11:48:58;;;;;;;7.30;6.60;;;;;;;17.30;52.34;96872.84;4979311;28;20108;-63
2022/04/29 11:51:30;;;;;;;7.28;5.68;;;;;;;17.47;52.19;96878.06;4996815;28;20037;-62
2022/04/29 11:54:00;;;;;;;10.82;6.55;;;;;;;17.66;51.95;96875.13;4996796;28;20114;-64
2022/04/29 11:56:46;;;;;;;7.40;6.25;;;;;;;17.73;49.93;96870.31;4996728;28;20474;-62
2022/04/29 11:59:12;;;;;;;6.57;5.78;;;;;;;17.66;49.53;96868.06;4996197;28;20045;-62